sensor_id;sensor_type;location;lat;lon;timestamp;temperature;humidity
19385;DHT22;9828;54.122;17.974;2023-05-02T00:05:11;11.00;99.90
19385;DHT22;9828;54.122;17.974;2023-05-02T00:10:31;11.00;99.90
19385;DHT22;9828;54.122;17.974;2023-05-02T00:15:52;10.90;99.90
19385;DHT22;9828;54.122;17.974;2023-05-02T00:21:13;10.90;99.90
19385;DHT22;9828;54.122;17.974;2023-05-02T00:26:34;10.90;99.90
19385;DHT22;9828;54.122;17.974;2023-05-02T00:31:56;10.90;1.00
19385;DHT22;9828;54.122;17.974;2023-05-02T00:37:17;10.80;1.00
19385;DHT22;9828;54.122;17.974;2023-05-02T00:42:39;10.70;1.00
19385;DHT22;9828;54.122;17.974;2023-05-02T00:48:00;10.70;1.00
19385;DHT22;9828;54.122;17.974;2023-05-02T00:53:21;10.60;1.00
19385;DHT22;9828;54.122;17.974;2023-05-02T02:48:18;10.10;1.00
19385;DHT22;9828;54.122;17.974;2023-05-02T02:54:03;10.00;1.00
19385;DHT22;9828;54.122;17.974;2023-05-02T02:59:37;9.90;1.00
19385;DHT22;9828;54.122;17.974;2023-05-02T03:10:24;9.70;1.00
19385;DHT22;9828;54.122;17.974;2023-05-02T03:21:19;9.90;1.00
19385;DHT22;9828;54.122;17.974;2023-05-02T03:26:42;9.90;1.00
19385;DHT22;9828;54.122;17.974;2023-05-02T03:32:05;9.80;1.00
19385;DHT22;9828;54.122;17.974;2023-05-02T03:37:28;9.80;1.00
19385;DHT22;9828;54.122;17.974;2023-05-02T03:42:52;9.90;1.00
19385;DHT22;9828;54.122;17.974;2023-05-02T03:48:20;10.00;1.00
19385;DHT22;9828;54.122;17.974;2023-05-02T03:53:41;10.10;99.90
19385;DHT22;9828;54.122;17.974;2023-05-02T03:59:03;10.10;99.90
19385;DHT22;9828;54.122;17.974;2023-05-02T04:04:25;10.00;99.90
19385;DHT22;9828;54.122;17.974;2023-05-02T04:09:47;10.00;1.00
19385;DHT22;9828;54.122;17.974;2023-05-02T04:15:09;9.90;1.00
19385;DHT22;9828;54.122;17.974;2023-05-02T04:20:32;10.00;1.00
19385;DHT22;9828;54.122;17.974;2023-05-02T04:25:54;10.00;99.90
19385;DHT22;9828;54.122;17.974;2023-05-02T04:31:24;10.00;1.00
19385;DHT22;9828;54.122;17.974;2023-05-02T04:36:45;10.00;1.00
19385;DHT22;9828;54.122;17.974;2023-05-02T04:42:12;10.00;1.00
19385;DHT22;9828;54.122;17.974;2023-05-02T04:47:42;10.00;53.20
19385;DHT22;9828;54.122;17.974;2023-05-02T04:53:03;9.90;99.90
19385;DHT22;9828;54.122;17.974;2023-05-02T04:58:26;10.00;1.00
19385;DHT22;9828;54.122;17.974;2023-05-02T05:03:53;10.10;1.00
19385;DHT22;9828;54.122;17.974;2023-05-02T05:09:15;10.40;99.90
19385;DHT22;9828;54.122;17.974;2023-05-02T05:14:36;10.60;99.90
19385;DHT22;9828;54.122;17.974;2023-05-02T05:19:57;10.60;79.60
19385;DHT22;9828;54.122;17.974;2023-05-02T05:25:19;10.80;95.40
19385;DHT22;9828;54.122;17.974;2023-05-02T05:30:42;11.00;35.10
19385;DHT22;9828;54.122;17.974;2023-05-02T05:36:08;11.10;1.00
19385;DHT22;9828;54.122;17.974;2023-05-02T05:41:29;11.30;1.00
19385;DHT22;9828;54.122;17.974;2023-05-02T05:46:58;11.40;1.00
19385;DHT22;9828;54.122;17.974;2023-05-02T05:52:20;11.60;1.00
19385;DHT22;9828;54.122;17.974;2023-05-02T05:57:43;11.70;1.00
19385;DHT22;9828;54.122;17.974;2023-05-02T06:03:05;11.80;1.00
19385;DHT22;9828;54.122;17.974;2023-05-02T06:08:28;11.80;1.00
19385;DHT22;9828;54.122;17.974;2023-05-02T06:13:52;11.80;1.00
19385;DHT22;9828;54.122;17.974;2023-05-02T06:19:15;11.80;1.00
19385;DHT22;9828;54.122;17.974;2023-05-02T06:24:36;12.00;1.00
19385;DHT22;9828;54.122;17.974;2023-05-02T06:29:57;12.00;1.00
19385;DHT22;9828;54.122;17.974;2023-05-02T06:35:18;12.20;1.00
19385;DHT22;9828;54.122;17.974;2023-05-02T06:40:39;12.40;1.00
19385;DHT22;9828;54.122;17.974;2023-05-02T06:46:05;12.60;1.00
19385;DHT22;9828;54.122;17.974;2023-05-02T06:51:26;12.90;1.00
19385;DHT22;9828;54.122;17.974;2023-05-02T06:56:47;13.10;1.00
19385;DHT22;9828;54.122;17.974;2023-05-02T07:02:09;13.20;1.00
19385;DHT22;9828;54.122;17.974;2023-05-02T07:07:30;13.30;1.00
19385;DHT22;9828;54.122;17.974;2023-05-02T07:12:51;13.60;1.00
19385;DHT22;9828;54.122;17.974;2023-05-02T07:18:12;14.50;99.90
19385;DHT22;9828;54.122;17.974;2023-05-02T07:23:33;15.80;70.40
19385;DHT22;9828;54.122;17.974;2023-05-02T07:28:54;17.10;1.00
19385;DHT22;9828;54.122;17.974;2023-05-02T07:39:37;18.80;1.00
19385;DHT22;9828;54.122;17.974;2023-05-02T07:44:58;19.20;1.00
19385;DHT22;9828;54.122;17.974;2023-05-02T07:50:19;19.50;99.90
19385;DHT22;9828;54.122;17.974;2023-05-02T08:01:02;20.60;99.90
19385;DHT22;9828;54.122;17.974;2023-05-02T08:06:23;20.60;99.90
19385;DHT22;9828;54.122;17.974;2023-05-02T08:17:06;21.10;1.00
19385;DHT22;9828;54.122;17.974;2023-05-02T08:22:27;20.80;1.00
19385;DHT22;9828;54.122;17.974;2023-05-02T08:33:09;22.20;68.70
19385;DHT22;9828;54.122;17.974;2023-05-02T08:38:30;22.10;8.40
19385;DHT22;9828;54.122;17.974;2023-05-02T08:43:51;22.10;99.90
19385;DHT22;9828;54.122;17.974;2023-05-02T08:49:14;22.30;61.70
19385;DHT22;9828;54.122;17.974;2023-05-02T12:20:35;15.00;99.90
19385;DHT22;9828;54.122;17.974;2023-05-02T12:25:57;15.30;91.00
19385;DHT22;9828;54.122;17.974;2023-05-02T12:31:18;15.80;1.00
19385;DHT22;9828;54.122;17.974;2023-05-02T12:36:44;16.00;1.00
19385;DHT22;9828;54.122;17.974;2023-05-02T12:42:12;15.60;1.00
19385;DHT22;9828;54.122;17.974;2023-05-02T12:47:43;15.60;1.00
19385;DHT22;9828;54.122;17.974;2023-05-02T12:53:06;15.50;1.00
19385;DHT22;9828;54.122;17.974;2023-05-02T12:58:27;15.30;1.00
19385;DHT22;9828;54.122;17.974;2023-05-02T13:03:50;14.80;1.00
19385;DHT22;9828;54.122;17.974;2023-05-02T13:09:11;14.80;1.00
19385;DHT22;9828;54.122;17.974;2023-05-02T13:14:31;15.00;1.00
19385;DHT22;9828;54.122;17.974;2023-05-02T13:19:53;15.10;1.00
19385;DHT22;9828;54.122;17.974;2023-05-02T13:25:20;15.20;1.00
19385;DHT22;9828;54.122;17.974;2023-05-02T13:30:41;15.20;1.00
19385;DHT22;9828;54.122;17.974;2023-05-02T13:36:02;15.10;1.00
19385;DHT22;9828;54.122;17.974;2023-05-02T13:41:23;14.90;1.00
19385;DHT22;9828;54.122;17.974;2023-05-02T13:46:44;14.70;1.00
19385;DHT22;9828;54.122;17.974;2023-05-02T13:52:06;14.60;1.00
19385;DHT22;9828;54.122;17.974;2023-05-02T13:57:27;14.60;1.00
19385;DHT22;9828;54.122;17.974;2023-05-02T14:02:48;14.80;1.00
19385;DHT22;9828;54.122;17.974;2023-05-02T14:08:10;14.70;1.00
19385;DHT22;9828;54.122;17.974;2023-05-02T14:13:31;14.80;1.00
19385;DHT22;9828;54.122;17.974;2023-05-02T14:18:51;15.00;1.00
19385;DHT22;9828;54.122;17.974;2023-05-02T14:24:13;15.10;1.00
19385;DHT22;9828;54.122;17.974;2023-05-02T14:29:35;15.00;1.00
19385;DHT22;9828;54.122;17.974;2023-05-02T14:45:39;14.30;1.00
19385;DHT22;9828;54.122;17.974;2023-05-02T14:51:02;14.40;1.00
19385;DHT22;9828;54.122;17.974;2023-05-02T15:01:45;14.00;36.70
19385;DHT22;9828;54.122;17.974;2023-05-02T15:07:06;14.00;1.00
19385;DHT22;9828;54.122;17.974;2023-05-02T15:12:27;13.70;1.00
19385;DHT22;9828;54.122;17.974;2023-05-02T15:17:48;13.80;1.00
19385;DHT22;9828;54.122;17.974;2023-05-02T15:23:09;13.80;1.00
19385;DHT22;9828;54.122;17.974;2023-05-02T15:28:31;13.80;1.00
19385;DHT22;9828;54.122;17.974;2023-05-02T15:33:52;13.90;1.00
19385;DHT22;9828;54.122;17.974;2023-05-02T15:39:13;14.10;1.00
19385;DHT22;9828;54.122;17.974;2023-05-02T15:44:35;13.90;1.00
19385;DHT22;9828;54.122;17.974;2023-05-02T15:49:59;13.80;1.00
19385;DHT22;9828;54.122;17.974;2023-05-02T15:55:20;13.60;1.00
19385;DHT22;9828;54.122;17.974;2023-05-02T16:00:42;13.60;1.00
19385;DHT22;9828;54.122;17.974;2023-05-02T16:06:03;13.60;1.00
19385;DHT22;9828;54.122;17.974;2023-05-02T16:11:26;13.40;1.00
19385;DHT22;9828;54.122;17.974;2023-05-02T16:16:47;13.40;1.00
19385;DHT22;9828;54.122;17.974;2023-05-02T16:22:08;13.40;1.00
19385;DHT22;9828;54.122;17.974;2023-05-02T16:27:30;13.40;1.00
19385;DHT22;9828;54.122;17.974;2023-05-02T16:32:50;13.30;1.00
19385;DHT22;9828;54.122;17.974;2023-05-02T16:38:12;13.30;1.00
19385;DHT22;9828;54.122;17.974;2023-05-02T16:43:33;13.30;1.00
19385;DHT22;9828;54.122;17.974;2023-05-02T16:48:54;13.20;1.00
19385;DHT22;9828;54.122;17.974;2023-05-02T16:54:16;13.10;1.00
19385;DHT22;9828;54.122;17.974;2023-05-02T16:59:38;13.10;1.00
19385;DHT22;9828;54.122;17.974;2023-05-02T17:04:59;13.00;1.00
19385;DHT22;9828;54.122;17.974;2023-05-02T17:10:21;12.70;99.90
19385;DHT22;9828;54.122;17.974;2023-05-02T17:15:41;12.50;99.90
19385;DHT22;9828;54.122;17.974;2023-05-02T17:21:03;12.50;1.00
19385;DHT22;9828;54.122;17.974;2023-05-02T17:26:25;12.50;63.40
19385;DHT22;9828;54.122;17.974;2023-05-02T17:31:46;12.40;1.00
19385;DHT22;9828;54.122;17.974;2023-05-02T17:37:07;12.30;57.20
19385;DHT22;9828;54.122;17.974;2023-05-02T17:42:28;12.20;1.00
19385;DHT22;9828;54.122;17.974;2023-05-02T17:47:49;12.10;68.60
19385;DHT22;9828;54.122;17.974;2023-05-02T17:53:10;12.00;93.90
19385;DHT22;9828;54.122;17.974;2023-05-02T17:58:32;11.80;1.00
19385;DHT22;9828;54.122;17.974;2023-05-02T18:03:55;11.70;1.00
19385;DHT22;9828;54.122;17.974;2023-05-02T18:09:17;11.70;99.90
19385;DHT22;9828;54.122;17.974;2023-05-02T18:14:38;11.70;99.90
19385;DHT22;9828;54.122;17.974;2023-05-02T18:19:59;11.80;99.90
19385;DHT22;9828;54.122;17.974;2023-05-02T18:25:24;11.60;99.90
19385;DHT22;9828;54.122;17.974;2023-05-02T18:36:06;11.40;1.00
19385;DHT22;9828;54.122;17.974;2023-05-02T18:41:27;11.40;1.00
19385;DHT22;9828;54.122;17.974;2023-05-02T18:52:10;11.20;1.00
19385;DHT22;9828;54.122;17.974;2023-05-02T19:13:39;10.80;1.00
19385;DHT22;9828;54.122;17.974;2023-05-02T19:19:00;10.70;1.00
19385;DHT22;9828;54.122;17.974;2023-05-02T19:24:21;10.60;1.00
19385;DHT22;9828;54.122;17.974;2023-05-02T19:29:43;10.50;1.00
19385;DHT22;9828;54.122;17.974;2023-05-02T19:35:04;10.50;1.00
19385;DHT22;9828;54.122;17.974;2023-05-02T19:40:27;10.40;1.00
19385;DHT22;9828;54.122;17.974;2023-05-02T21:59:56;8.30;99.90
19385;DHT22;9828;54.122;17.974;2023-05-02T22:05:17;8.10;1.00
19385;DHT22;9828;54.122;17.974;2023-05-02T22:16:02;7.90;1.00
19385;DHT22;9828;54.122;17.974;2023-05-02T22:32:08;7.80;1.00
19385;DHT22;9828;54.122;17.974;2023-05-02T22:37:30;7.80;1.00
19385;DHT22;9828;54.122;17.974;2023-05-02T22:42:51;7.70;1.00
19385;DHT22;9828;54.122;17.974;2023-05-02T23:04:16;6.70;99.90
19385;DHT22;9828;54.122;17.974;2023-05-02T23:09:37;6.80;1.00
19385;DHT22;9828;54.122;17.974;2023-05-02T23:14:58;6.70;1.00
19385;DHT22;9828;54.122;17.974;2023-05-02T23:20:19;6.70;1.00
19385;DHT22;9828;54.122;17.974;2023-05-02T23:25:42;6.80;1.00
19385;DHT22;9828;54.122;17.974;2023-05-02T23:31:04;6.70;1.00
19385;DHT22;9828;54.122;17.974;2023-05-02T23:36:26;6.60;1.00
19385;DHT22;9828;54.122;17.974;2023-05-02T23:41:47;6.70;99.90
19385;DHT22;9828;54.122;17.974;2023-05-02T23:47:08;6.80;1.00
19385;DHT22;9828;54.122;17.974;2023-05-02T23:52:29;6.90;1.00
19385;DHT22;9828;54.122;17.974;2023-05-02T23:57:50;6.90;1.00
